Forest, Canada
Current Conditions -  °F | °C
As of 1:00 PM on Monday 22 Dec 2014 (Local Time) from CYZR Reporting Station
Few Clouds Few Clouds  
Wind Chill: 31°   Ceiling: Unl
Heat Index: 37°   Visibility: 9mi
Dew Point: 28°   Wind: 9mph
Humidity: 70%   Direction: 150°SSE
Pressure: 30.04"   Gusts: NA
Location:  43.1°N, 82°W
Report Text: CYZR 221800Z AUTO 15008KT 9SM FEW020 03/M02 A3004 RMK SLP179
Loading
Personal Weather Stations






























Interactive Weather Map New forecast layout! Learn more

10-Day Weather Forecast

Advertisements
Track Severe Weather on mobile